首页
METAR-TAF:

METAR-TAF

机场 :

魁北克让·勒萨热国际机场

魁北克, 魁北克, 加拿大

纬度: 46-48N, 经度: 071-23W, 海拔: 70米

当前天气观测

该预报发布于24分钟前的09:00 UTC
风速4节,风向,在西北北转东北之间变化
温度 1°C
湿度 86%
气压 1019 hPa
能見度: 24.1公里
少量云层高于25000英尺

METAR: CYQB 200900Z 35004KT 320V020 15SM FEW250 01/M01 A3008 RMK CI1 SLP191

时间: 05:24 (09:24 UTC)

预报

该预报发布于3小时和46分钟前的05:38 UTC
预报有效从20日的 06点(UTC)到 21日的 06点(UTC)
风速5节,风向
能見度: 10公里
天空无云
几率 30%
从 20日的 06点(UTC)到 20日的 14点(UTC)
能見度: 1.2公里
散云层高于200英尺
轻雾
从 20日的 1400点(UTC)
风速5节,风向东转东北
能見度: 10公里
多云层高于20000英尺
从 21日的 0000点(UTC)
风速5节,风向东北
能見度: 10公里
少量云层高于12000英尺
散云层高于18000英尺

TAF: CYQB 200538Z 2006/2106 36005KT P6SM SKC PROB30 2006/2014 3/4SM BR SCT002 FM201400 07005KT P6SM BKN200 FM210000 04005KT P6SM FEW120 SCT180 RMK NXT FCST BY 201200Z

超过4000个机场的气象观测和天气预报(METAR&TAF报告)。

可查询的气象台以黄色和红色小点在地图上表示。

将鼠标移到小点上方,可查看气象台名称。

然后点击查看天气观测和预报。

如需切换地图:点击带黑十字的绿色按钮放大地图;点击带横线的绿色按钮缩小地图;或者点击绿色箭头查看邻近地区的地图。


METAR-TAF: